Time;durP1;ratioP1;P1;durP2;ratioP2;P2;SDS_P1;SDS_P2;PMS_P1;PMS_P2;Temp;Humidity;BMP_temperature;BMP_pressure;BME280_temperature;BME280_humidity;BME280_pressure;Samples;Min_cycle;Max_cycle;Signal;HPM_P1;HPM_P2
2022/08/20 00:00:18;;;;;;;2.63;2.50;;;30.90;40.60;;;;;;5042343;28;20451;-82
2022/08/20 00:02:47;;;;;;;3.00;2.90;;;30.80;40.60;;;;;;5043854;28;20474;-83
2022/08/20 00:05:15;;;;;;;2.50;2.40;;;30.80;40.60;;;;;;5043798;28;20467;-83
2022/08/20 00:07:43;;;;;;;2.77;2.67;;;30.70;40.60;;;;;;5043872;28;20479;-83
2022/08/20 00:10:13;;;;;;;2.80;2.70;;;30.70;40.70;;;;;;5042958;28;20446;-83
2022/08/20 00:12:43;;;;;;;3.00;2.83;;;30.70;40.80;;;;;;5041305;28;20610;-83
2022/08/20 00:15:12;;;;;;;2.50;2.40;;;30.70;40.80;;;;;;5040364;28;20455;-82
2022/08/20 00:28:17;;;;;;;2.67;2.57;;;30.70;40.90;;;;;;5137586;27;20540;-82
2022/08/20 00:30:45;;;;;;;2.20;2.10;;;30.70;40.70;;;;;;5142341;27;20435;-82
2022/08/20 00:33:15;;;;;;;2.87;2.77;;;30.60;41.10;;;;;;5141362;27;20463;-82
2022/08/20 00:35:45;;;;;;;3.10;2.90;;;30.50;41.10;;;;;;5140563;27;20467;-82
2022/08/20 00:38:13;;;;;;;2.37;2.27;;;30.50;41.20;;;;;;5140913;27;20465;-83
2022/08/20 00:40:44;;;;;;;2.50;2.40;;;30.50;41.30;;;;;;5138523;27;20439;-82
2022/08/20 00:43:29;;;;;;;2.40;2.30;;;30.50;41.30;;;;;;5136892;27;20489;-81
2022/08/20 00:45:58;;;;;;;2.57;2.47;;;30.50;41.20;;;;;;5137130;27;20444;-82
2022/08/20 00:48:26;;;;;;;2.60;2.50;;;30.50;41.30;;;;;;5137165;27;20500;-82
2022/08/20 00:50:55;;;;;;;2.70;2.60;;;30.50;41.40;;;;;;5136558;27;20462;-82
2022/08/20 00:53:23;;;;;;;2.30;2.20;;;30.50;41.40;;;;;;5136005;27;20526;-82
2022/08/20 00:55:51;;;;;;;2.73;2.63;;;30.40;41.30;;;;;;5135369;27;20482;-82
2022/08/20 00:58:20;;;;;;;2.80;2.60;;;30.40;41.40;;;;;;5135228;27;20979;-82
2022/08/20 01:00:49;;;;;;;2.77;2.67;;;30.40;41.40;;;;;;5135380;27;20450;-81
2022/08/20 01:03:19;;;;;;;2.70;2.60;;;30.40;41.40;;;;;;5135039;27;20419;-82
2022/08/20 01:05:48;;;;;;;2.80;2.70;;;30.40;41.50;;;;;;5141441;27;20467;-81
2022/08/20 01:08:18;;;;;;;2.60;2.50;;;30.40;41.50;;;;;;5135918;27;20464;-82
2022/08/20 01:10:48;;;;;;;3.00;2.90;;;30.30;41.40;;;;;;5135495;27;20438;-83
2022/08/20 01:13:19;;;;;;;3.07;2.97;;;30.30;41.40;;;;;;5140298;27;20500;-84
2022/08/20 01:15:50;;;;;;;3.20;3.00;;;30.30;41.50;;;;;;5137029;27;20459;-84
2022/08/20 01:18:21;;;;;;;2.77;2.67;;;30.30;41.60;;;;;;5138485;27;20431;-83
2022/08/20 01:20:51;;;;;;;2.67;2.57;;;30.30;41.50;;;;;;5139084;27;20439;-83
2022/08/20 01:23:28;;;;;;;3.17;2.97;;;30.30;41.60;;;;;;5138846;27;20538;-84
2022/08/20 01:26:03;;;;;;;2.83;2.73;;;30.20;41.60;;;;;;5140077;27;20499;-84
2022/08/20 01:28:35;;;;;;;3.63;3.43;;;30.20;41.60;;;;;;5131521;27;20422;-84
2022/08/20 01:31:03;;;;;;;3.73;3.60;;;30.20;41.70;;;;;;5126792;28;20414;-82
2022/08/20 01:33:32;;;;;;;3.20;3.10;;;30.20;41.70;;;;;;5125768;28;20532;-83
2022/08/20 01:36:00;;;;;;;2.60;2.50;;;30.10;41.70;;;;;;5125072;28;20531;-83
2022/08/20 01:38:29;;;;;;;2.70;2.60;;;30.10;41.70;;;;;;5125873;28;20440;-83
2022/08/20 01:41:38;;;;;;;2.87;2.77;;;30.10;41.70;;;;;;5126388;28;20474;-84
2022/08/20 01:44:07;;;;;;;2.60;2.50;;;30.00;41.60;;;;;;5127238;28;20460;-83
2022/08/20 01:46:45;;;;;;;2.80;2.70;;;30.10;41.80;;;;;;5126298;27;20418;-83
2022/08/20 01:49:14;;;;;;;3.00;2.90;;;30.00;41.80;;;;;;5125490;27;20440;-84
2022/08/20 01:51:50;;;;;;;2.77;2.67;;;30.00;41.80;;;;;;5125814;28;20458;-83
2022/08/20 01:54:18;;;;;;;2.87;2.77;;;30.00;41.80;;;;;;5123386;28;20485;-84
2022/08/20 01:57:00;;;;;;;2.60;2.50;;;30.00;41.80;;;;;;5123987;28;20494;-84
2022/08/20 01:59:28;;;;;;;2.90;2.80;;;29.90;41.90;;;;;;5124141;28;20444;-84
2022/08/20 02:01:56;;;;;;;2.67;2.57;;;29.90;42.00;;;;;;5125446;28;20440;-84
2022/08/20 02:04:25;;;;;;;2.90;2.80;;;29.90;42.00;;;;;;5123584;28;20800;-84
2022/08/20 02:06:55;;;;;;;3.07;2.97;;;29.90;42.00;;;;;;5121521;28;20431;-84
2022/08/20 02:09:25;;;;;;;2.83;2.73;;;29.90;42.00;;;;;;5121495;28;20444;-84
2022/08/20 02:11:55;;;;;;;2.80;2.70;;;29.90;42.00;;;;;;5121505;28;20470;-84
2022/08/20 02:14:23;;;;;;;2.70;2.60;;;29.90;42.00;;;;;;5119814;28;20463;-84
2022/08/20 02:16:54;;;;;;;2.73;2.63;;;29.90;42.00;;;;;;5120632;28;20430;-84
2022/08/20 02:19:26;;;;;;;2.77;2.67;;;29.90;42.10;;;;;;5120862;27;20463;-84
2022/08/20 02:21:55;;;;;;;2.60;2.50;;;29.80;42.10;;;;;;5119264;28;20415;-84
2022/08/20 02:24:23;;;;;;;2.67;2.57;;;29.80;42.10;;;;;;5120400;28;20531;-83
2022/08/20 02:26:52;;;;;;;2.90;2.80;;;29.80;42.10;;;;;;5123722;28;20496;-83
2022/08/20 02:29:22;;;;;;;2.57;2.47;;;29.80;42.20;;;;;;5123850;28;20451;-83
2022/08/20 02:31:50;;;;;;;2.20;2.10;;;29.80;42.10;;;;;;5123244;28;20419;-83
2022/08/20 02:34:41;;;;;;;2.90;2.80;;;29.70;42.10;;;;;;5121717;28;20429;-83
2022/08/20 02:37:09;;;;;;;2.80;2.70;;;29.70;42.30;;;;;;5125885;28;20491;-82
2022/08/20 02:39:37;;;;;;;2.50;2.40;;;29.70;42.20;;;;;;5124671;28;20418;-83
2022/08/20 02:42:05;;;;;;;2.60;2.50;;;29.70;42.20;;;;;;5126824;28;20505;-83
2022/08/20 02:44:35;;;;;;;2.70;2.60;;;29.70;42.20;;;;;;5124542;28;20463;-83
2022/08/20 02:47:04;;;;;;;2.83;2.73;;;29.70;42.30;;;;;;5125731;28;20509;-82
2022/08/20 02:49:32;;;;;;;2.47;2.37;;;29.60;42.30;;;;;;5125230;28;20493;-82
2022/08/20 02:52:00;;;;;;;2.63;2.53;;;29.60;42.30;;;;;;5126164;28;20471;-82
2022/08/20 02:54:30;;;;;;;2.90;2.80;;;29.60;42.30;;;;;;5125898;28;20467;-83
2022/08/20 02:56:59;;;;;;;2.57;2.47;;;29.60;42.30;;;;;;5125469;28;20418;-83
2022/08/20 02:59:27;;;;;;;2.33;2.23;;;29.50;42.30;;;;;;5123333;28;20424;-83
2022/08/20 03:01:57;;;;;;;2.80;2.70;;;29.50;42.30;;;;;;5122359;28;20439;-83
2022/08/20 03:04:28;;;;;;;2.87;2.77;;;29.50;43.00;;;;;;5121738;28;20427;-83
2022/08/20 03:06:56;;;;;;;2.50;2.40;;;29.50;42.50;;;;;;5121865;28;20942;-82
2022/08/20 03:09:24;;;;;;;2.60;2.50;;;29.50;42.40;;;;;;5121672;28;20482;-83
2022/08/20 03:11:53;;;;;;;2.60;2.50;;;29.50;42.50;;;;;;5122606;28;20426;-83
2022/08/20 03:14:24;;;;;;;2.53;2.43;;;29.40;42.50;;;;;;5123814;28;20463;-83
2022/08/20 03:16:52;;;;;;;2.50;2.40;;;29.40;42.50;;;;;;5123380;28;20994;-83
2022/08/20 03:19:21;;;;;;;2.60;2.50;;;29.40;42.60;;;;;;5123081;28;20468;-83
2022/08/20 03:21:50;;;;;;;2.80;2.70;;;29.40;42.60;;;;;;5118158;28;20478;-83
2022/08/20 03:24:18;;;;;;;2.60;2.50;;;29.40;42.60;;;;;;5119614;28;20529;-83
2022/08/20 03:26:46;;;;;;;3.20;3.00;;;29.30;42.50;;;;;;5119121;28;20473;-83
2022/08/20 03:29:14;;;;;;;2.60;2.50;;;29.30;42.50;;;;;;5118622;28;20414;-83
2022/08/20 03:31:42;;;;;;;2.63;2.53;;;29.30;42.60;;;;;;5119417;28;20527;-83
2022/08/20 03:34:10;;;;;;;2.80;2.70;;;29.20;42.70;;;;;;5119183;28;20546;-83
2022/08/20 03:36:40;;;;;;;2.43;2.33;;;29.30;42.70;;;;;;5118590;27;20465;-83
2022/08/20 03:39:11;;;;;;;2.77;2.67;;;29.30;42.60;;;;;;5119633;28;21057;-83
2022/08/20 03:41:39;;;;;;;2.57;2.47;;;29.30;42.70;;;;;;5120008;28;20418;-83
2022/08/20 03:44:08;;;;;;;2.80;2.70;;;29.30;42.80;;;;;;5121533;28;20493;-83
2022/08/20 03:46:37;;;;;;;2.90;2.77;;;29.30;42.70;;;;;;5120378;28;20455;-83
2022/08/20 03:49:06;;;;;;;2.70;2.50;;;29.20;42.70;;;;;;5119786;28;20843;-82
2022/08/20 03:51:34;;;;;;;2.77;2.67;;;29.20;42.90;;;;;;5118490;28;20439;-82
2022/08/20 03:54:23;;;;;;;3.20;3.00;;;29.20;42.80;;;;;;5119984;28;20852;-83
2022/08/20 03:56:58;;;;;;;2.97;2.87;;;29.20;42.90;;;;;;5119524;28;20499;-83
2022/08/20 03:59:26;;;;;;;2.70;2.60;;;29.20;42.80;;;;;;5120356;28;20442;-83
2022/08/20 04:01:54;;;;;;;3.00;2.90;;;29.10;43.00;;;;;;5120968;28;20440;-83
2022/08/20 04:04:22;;;;;;;2.93;2.73;;;29.10;43.10;;;;;;5120414;28;20438;-84
2022/08/20 04:06:50;;;;;;;2.90;2.80;;;29.10;42.90;;;;;;5120995;28;20451;-82
2022/08/20 04:09:18;;;;;;;2.57;2.47;;;29.10;43.10;;;;;;5120912;28;20434;-83
2022/08/20 04:11:47;;;;;;;2.93;2.83;;;29.00;43.00;;;;;;5119653;28;20430;-83
2022/08/20 04:14:16;;;;;;;2.93;2.73;;;29.10;43.00;;;;;;5121919;28;20529;-83
2022/08/20 04:16:47;;;;;;;2.87;2.67;;;29.00;43.00;;;;;;5121323;28;20440;-83
2022/08/20 04:19:16;;;;;;;3.17;2.97;;;29.00;43.00;;;;;;5119289;28;20497;-83
2022/08/20 04:21:47;;;;;;;2.77;2.67;;;29.00;43.00;;;;;;5118768;28;20471;-83
2022/08/20 04:24:16;;;;;;;2.90;2.80;;;29.00;43.10;;;;;;5126438;28;20498;-83
2022/08/20 04:27:01;;;;;;;2.57;2.47;;;28.90;43.00;;;;;;5118923;28;20474;-83
2022/08/20 04:29:29;;;;;;;3.37;3.17;;;28.90;43.20;;;;;;5119397;28;20436;-83
2022/08/20 04:32:00;;;;;;;2.80;2.70;;;28.90;43.10;;;;;;5120367;28;20444;-83
2022/08/20 04:34:33;;;;;;;2.87;2.77;;;28.90;43.10;;;;;;5118357;28;20485;-83
2022/08/20 04:37:01;;;;;;;2.97;2.67;;;28.90;43.20;;;;;;5119096;28;20443;-82
2022/08/20 04:39:29;;;;;;;2.57;2.47;;;28.90;43.00;;;;;;5119454;28;20468;-83
2022/08/20 04:41:57;;;;;;;2.40;2.30;;;28.80;43.10;;;;;;5120520;28;20463;-82
2022/08/20 04:44:27;;;;;;;2.90;2.80;;;28.90;43.20;;;;;;5120719;28;20487;-82
2022/08/20 04:46:55;;;;;;;2.83;2.70;;;28.90;43.20;;;;;;5121868;28;20443;-82
2022/08/20 04:49:25;;;;;;;2.70;2.60;;;28.80;43.10;;;;;;5123072;28;20451;-83
2022/08/20 04:51:53;;;;;;;2.40;2.30;;;28.80;43.10;;;;;;5121861;28;20447;-82
2022/08/20 04:54:21;;;;;;;3.03;2.83;;;28.80;43.20;;;;;;5123312;28;20464;-83
2022/08/20 04:56:49;;;;;;;2.87;2.77;;;28.80;43.10;;;;;;5121857;28;20448;-82
2022/08/20 04:59:17;;;;;;;2.70;2.60;;;28.80;43.10;;;;;;5122385;28;20467;-82
2022/08/20 05:01:47;;;;;;;3.27;3.10;;;28.80;43.00;;;;;;5122806;28;20463;-82
2022/08/20 05:04:15;;;;;;;2.80;2.70;;;28.80;43.10;;;;;;5123169;28;20459;-82
2022/08/20 05:06:43;;;;;;;2.60;2.50;;;28.80;43.10;;;;;;5123308;27;20474;-82
2022/08/20 05:09:11;;;;;;;2.80;2.60;;;28.80;43.00;;;;;;5124175;28;20463;-82
2022/08/20 05:11:39;;;;;;;3.00;2.90;;;28.70;43.20;;;;;;5123877;28;20482;-82
2022/08/20 05:14:08;;;;;;;2.80;2.60;;;28.80;43.50;;;;;;5120262;28;20490;-83
2022/08/20 05:16:39;;;;;;;2.60;2.50;;;28.70;43.10;;;;;;5117952;28;20425;-83
2022/08/20 05:19:10;;;;;;;2.77;2.67;;;28.70;43.00;;;;;;5117583;28;20464;-83
2022/08/20 05:21:38;;;;;;;2.50;2.40;;;28.80;43.00;;;;;;5117692;28;20467;-83
2022/08/20 05:24:06;;;;;;;3.10;2.80;;;28.80;43.00;;;;;;5117777;28;20443;-83
2022/08/20 05:26:34;;;;;;;3.43;2.40;;;28.80;43.10;;;;;;5118065;28;20463;-83
2022/08/20 05:29:05;;;;;;;2.67;2.57;;;28.70;43.00;;;;;;5117800;28;20482;-83
2022/08/20 05:31:33;;;;;;;2.70;2.60;;;28.70;42.90;;;;;;5118142;28;20999;-83
2022/08/20 05:34:02;;;;;;;3.37;3.17;;;28.70;43.00;;;;;;5119255;28;20462;-83
2022/08/20 05:36:31;;;;;;;2.40;2.30;;;28.80;43.00;;;;;;5120104;28;20448;-83
2022/08/20 05:39:00;;;;;;;2.70;2.60;;;28.80;42.90;;;;;;5119364;28;20507;-83
2022/08/20 05:41:28;;;;;;;2.77;2.67;;;28.70;43.00;;;;;;5121228;28;20481;-83
2022/08/20 05:43:59;;;;;;;2.90;2.80;;;28.70;43.00;;;;;;5123860;28;20441;-83
2022/08/20 05:46:29;;;;;;;2.57;2.43;;;28.80;42.90;;;;;;5125199;28;20435;-82
2022/08/20 05:48:58;;;;;;;2.60;2.50;;;28.70;42.80;;;;;;5124860;28;20446;-81
2022/08/20 05:51:27;;;;;;;2.80;2.70;;;28.80;42.80;;;;;;5126040;28;20479;-83
2022/08/20 05:53:57;;;;;;;2.80;2.70;;;28.70;42.70;;;;;;5124525;28;20479;-83
2022/08/20 05:56:29;;;;;;;2.50;2.40;;;28.80;42.80;;;;;;5125564;28;20472;-83
2022/08/20 05:58:59;;;;;;;2.77;2.57;;;28.80;42.60;;;;;;5123869;28;20472;-83
2022/08/20 06:01:27;;;;;;;2.93;2.83;;;28.80;42.60;;;;;;5122837;28;20443;-82
2022/08/20 06:06:41;;;;;;;2.60;2.50;;;28.80;42.60;;;;;;5122235;28;20475;-83
2022/08/20 06:09:15;;;;;;;2.17;2.07;;;28.80;42.70;;;;;;5122620;28;20461;-83
2022/08/20 06:11:43;;;;;;;2.60;2.40;;;28.90;42.60;;;;;;5123860;28;20444;-83
2022/08/20 06:14:11;;;;;;;3.23;2.50;;;28.90;42.50;;;;;;5123309;28;20489;-83
2022/08/20 06:16:39;;;;;;;2.53;2.43;;;28.90;42.40;;;;;;5123205;28;20997;-82
2022/08/20 06:19:24;;;;;;;2.97;2.77;;;28.90;42.30;;;;;;5124168;28;20547;-82
2022/08/20 06:21:55;;;;;;;2.40;2.30;;;28.90;42.30;;;;;;5124922;28;20511;-82
2022/08/20 06:24:25;;;;;;;2.73;2.50;;;28.90;42.20;;;;;;5123736;28;20467;-83
2022/08/20 06:26:56;;;;;;;2.50;2.40;;;29.00;42.20;;;;;;5123854;28;20451;-83
2022/08/20 06:29:24;;;;;;;2.30;2.20;;;29.00;42.10;;;;;;5123305;28;20434;-83
2022/08/20 06:31:52;;;;;;;2.37;2.27;;;29.10;42.10;;;;;;5124814;28;20440;-83
2022/08/20 06:34:20;;;;;;;2.40;2.30;;;29.10;42.00;;;;;;5123974;28;20492;-83
2022/08/20 06:36:48;;;;;;;2.43;2.33;;;29.10;42.00;;;;;;5124169;27;20467;-82
2022/08/20 06:39:16;;;;;;;2.40;2.30;;;29.00;41.90;;;;;;5126171;28;20472;-83
2022/08/20 06:41:46;;;;;;;2.33;2.23;;;29.00;42.00;;;;;;5124329;28;20466;-83
2022/08/20 06:44:15;;;;;;;2.50;2.30;;;29.10;41.80;;;;;;5124816;28;20483;-82
2022/08/20 06:46:43;;;;;;;2.80;2.60;;;29.10;41.90;;;;;;5124671;28;20473;-83
2022/08/20 06:49:12;;;;;;;3.90;2.60;;;29.20;41.70;;;;;;5124983;28;20440;-83
2022/08/20 06:51:40;;;;;;;2.00;1.90;;;29.30;41.70;;;;;;5125590;28;20422;-82
2022/08/20 06:54:08;;;;;;;2.10;2.10;;;29.30;41.50;;;;;;5124776;27;20434;-82
2022/08/20 06:56:37;;;;;;;2.13;2.03;;;29.40;41.50;;;;;;5125694;27;20918;-82
2022/08/20 06:59:06;;;;;;;2.60;2.30;;;29.50;41.40;;;;;;5124952;28;20417;-82
2022/08/20 07:01:34;;;;;;;2.53;2.37;;;29.50;41.40;;;;;;5125114;28;20474;-82
2022/08/20 07:04:04;;;;;;;2.07;1.93;;;29.60;41.20;;;;;;5126649;28;20442;-82
2022/08/20 07:06:32;;;;;;;2.00;1.90;;;29.60;41.00;;;;;;5128156;28;20475;-82
2022/08/20 07:09:00;;;;;;;2.10;2.00;;;29.70;41.00;;;;;;5126175;28;20465;-83
2022/08/20 07:11:28;;;;;;;2.20;2.10;;;29.70;40.90;;;;;;5124476;28;20422;-83
2022/08/20 07:13:56;;;;;;;2.10;2.00;;;29.80;41.00;;;;;;5123776;28;20462;-83
2022/08/20 07:16:26;;;;;;;2.03;1.93;;;29.80;41.00;;;;;;5122731;28;20465;-83
2022/08/20 07:18:54;;;;;;;2.20;2.10;;;29.90;40.90;;;;;;5123349;28;20496;-82
2022/08/20 07:21:25;;;;;;;1.93;1.83;;;29.90;40.80;;;;;;5122642;28;20498;-83
2022/08/20 07:23:53;;;;;;;2.57;2.47;;;30.00;40.70;;;;;;5122864;28;20463;-83
2022/08/20 07:26:22;;;;;;;5.47;2.23;;;30.00;40.60;;;;;;5120104;28;20460;-83
2022/08/20 07:28:50;;;;;;;1.90;1.80;;;30.10;40.40;;;;;;5121824;28;20471;-83
2022/08/20 07:34:05;;;;;;;1.80;1.70;;;30.20;40.30;;;;;;5122092;28;20444;-82
2022/08/20 07:36:33;;;;;;;2.00;1.80;;;30.30;40.40;;;;;;5122188;28;20444;-83
2022/08/20 07:39:01;;;;;;;2.30;2.20;;;30.30;40.10;;;;;;5122708;28;20444;-83
2022/08/20 07:41:33;;;;;;;2.27;2.07;;;30.40;39.80;;;;;;5126462;28;20449;-83
2022/08/20 07:44:01;;;;;;;1.97;1.83;;;30.50;40.00;;;;;;5123738;28;20460;-83
2022/08/20 07:46:30;;;;;;;1.93;1.83;;;30.50;39.60;;;;;;5122433;28;20942;-83
2022/08/20 07:48:58;;;;;;;2.33;2.17;;;30.70;39.30;;;;;;5122423;28;20497;-82
2022/08/20 07:51:28;;;;;;;4.03;2.07;;;30.90;39.20;;;;;;5122649;28;20466;-83
2022/08/20 07:53:58;;;;;;;1.77;1.67;;;30.90;39.00;;;;;;5123978;28;20501;-83
2022/08/20 07:56:27;;;;;;;2.50;2.30;;;31.10;39.10;;;;;;5123012;28;20443;-83
2022/08/20 07:58:59;;;;;;;2.33;2.13;;;31.20;39.00;;;;;;5123230;28;20466;-83
2022/08/20 08:01:31;;;;;;;2.30;1.70;;;31.30;38.90;;;;;;5122082;28;20467;-83
2022/08/20 08:03:59;;;;;;;1.80;1.70;;;31.40;39.00;;;;;;5122361;28;20977;-83
2022/08/20 08:06:29;;;;;;;1.80;1.70;;;31.50;39.00;;;;;;5122403;28;20415;-83
2022/08/20 08:09:02;;;;;;;1.77;1.67;;;31.60;39.00;;;;;;5122500;28;20448;-82
2022/08/20 08:11:31;;;;;;;2.63;1.90;;;31.60;39.00;;;;;;5121941;28;20436;-83
2022/08/20 08:14:00;;;;;;;2.83;1.90;;;31.70;39.00;;;;;;5122173;28;20467;-83
2022/08/20 08:16:29;;;;;;;1.70;1.60;;;31.90;38.80;;;;;;5121990;28;20540;-83
2022/08/20 08:18:58;;;;;;;1.97;1.87;;;32.00;38.90;;;;;;5120231;28;20459;-82
2022/08/20 08:21:27;;;;;;;2.20;2.00;;;32.00;38.90;;;;;;5118010;28;20506;-82
2022/08/20 08:23:57;;;;;;;1.60;1.50;;;32.20;38.90;;;;;;5117402;28;20463;-82
2022/08/20 08:26:27;;;;;;;1.70;1.57;;;32.20;38.80;;;;;;5117063;28;20502;-82
2022/08/20 08:28:56;;;;;;;1.83;1.73;;;32.20;38.80;;;;;;5117631;28;20470;-82
2022/08/20 08:31:27;;;;;;;2.20;2.00;;;32.20;38.70;;;;;;5118158;28;20420;-82
2022/08/20 08:33:55;;;;;;;1.80;1.70;;;32.30;39.30;;;;;;5117237;28;20464;-82
2022/08/20 08:36:26;;;;;;;1.90;1.80;;;32.40;38.60;;;;;;5117144;28;20531;-82
2022/08/20 08:38:55;;;;;;;1.90;1.70;;;32.40;38.40;;;;;;5119834;28;20447;-82
2022/08/20 08:41:30;;;;;;;1.97;1.87;;;32.40;38.60;;;;;;5121652;28;20527;-82
2022/08/20 08:44:03;;;;;;;1.93;1.83;;;32.40;38.60;;;;;;5121573;28;20519;-82
2022/08/20 08:46:31;;;;;;;2.00;1.90;;;32.40;38.80;;;;;;5121137;28;20478;-82
2022/08/20 08:49:00;;;;;;;1.70;1.60;;;32.60;39.00;;;;;;5121588;28;20464;-81
2022/08/20 08:51:30;;;;;;;2.10;2.00;;;32.60;39.20;;;;;;5121103;28;20443;-82
2022/08/20 08:53:59;;;;;;;2.17;1.80;;;32.70;39.30;;;;;;5120948;28;20494;-82
2022/08/20 08:56:33;;;;;;;1.70;1.53;;;32.80;39.40;;;;;;5120844;28;20435;-82
2022/08/20 08:59:02;;;;;;;1.63;1.53;;;32.90;39.40;;;;;;5120874;28;20466;-83
2022/08/20 09:01:31;;;;;;;1.70;1.70;;;33.10;39.40;;;;;;5120187;28;20562;-82
2022/08/20 09:04:20;;;;;;;1.83;1.70;;;33.20;39.60;;;;;;5120803;28;20443;-82
2022/08/20 09:06:48;;;;;;;2.80;1.70;;;33.40;39.60;;;;;;5120008;28;20435;-82
2022/08/20 09:09:23;;;;;;;1.60;1.50;;;33.50;39.50;;;;;;5120780;27;20488;-82
2022/08/20 09:11:52;;;;;;;1.40;1.30;;;33.80;39.40;;;;;;5119876;28;20464;-82
2022/08/20 09:14:21;;;;;;;1.67;1.57;;;34.10;39.10;;;;;;5119948;28;20567;-82
2022/08/20 09:16:49;;;;;;;1.47;1.47;;;34.30;39.00;;;;;;5120666;28;20444;-82
2022/08/20 09:19:20;;;;;;;1.30;1.30;;;34.50;38.80;;;;;;5120451;28;20440;-82
2022/08/20 09:21:48;;;;;;;1.63;1.53;;;34.70;38.60;;;;;;5120166;28;20914;-82
2022/08/20 09:24:16;;;;;;;1.50;1.40;;;34.90;38.40;;;;;;5120693;28;20527;-82
2022/08/20 09:26:46;;;;;;;1.50;1.40;;;35.00;38.20;;;;;;5119890;28;20497;-82
2022/08/20 09:29:14;;;;;;;1.47;1.37;;;35.10;38.00;;;;;;5119860;28;21017;-82
2022/08/20 09:31:43;;;;;;;1.40;1.30;;;35.20;37.70;;;;;;5119944;28;20475;-82
2022/08/20 09:34:13;;;;;;;1.53;1.37;;;35.20;37.60;;;;;;5120412;28;20467;-82
2022/08/20 09:36:41;;;;;;;1.97;1.87;;;35.30;37.50;;;;;;5120589;28;20520;-82
2022/08/20 09:39:11;;;;;;;1.40;1.30;;;35.20;37.30;;;;;;5119729;28;20447;-82
2022/08/20 09:41:40;;;;;;;1.90;1.47;;;35.20;37.40;;;;;;5120529;28;20477;-82
2022/08/20 09:44:09;;;;;;;1.40;1.30;;;35.40;37.30;;;;;;5119910;28;20554;-82
2022/08/20 09:46:37;;;;;;;1.43;1.33;;;35.30;37.70;;;;;;5120442;28;20505;-82
2022/08/20 09:49:05;;;;;;;2.50;1.50;;;35.30;38.20;;;;;;5123249;28;20447;-82
2022/08/20 09:51:36;;;;;;;1.30;1.20;;;35.40;38.10;;;;;;5120425;28;20468;-82
2022/08/20 09:54:05;;;;;;;1.23;1.13;;;35.80;38.00;;;;;;5119975;28;20463;-82
2022/08/20 09:56:33;;;;;;;1.27;1.23;;;36.00;37.60;;;;;;5119286;28;21013;-82
2022/08/20 09:59:01;;;;;;;1.67;1.57;;;36.20;37.30;;;;;;5119672;28;20522;-82
2022/08/20 10:01:31;;;;;;;1.47;1.30;;;36.50;37.10;;;;;;5119869;28;20466;-82
2022/08/20 10:04:00;;;;;;;1.90;1.23;;;36.70;36.90;;;;;;5120307;28;20459;-82
2022/08/20 10:06:28;;;;;;;1.80;1.27;;;37.00;36.70;;;;;;5119681;28;20526;-82
2022/08/20 10:08:56;;;;;;;1.67;1.67;;;37.40;36.40;;;;;;5120355;28;20511;-82
2022/08/20 10:11:24;;;;;;;1.50;1.40;;;37.60;36.00;;;;;;5120478;28;20483;-82
2022/08/20 10:13:52;;;;;;;1.10;1.10;;;37.90;35.60;;;;;;5120241;28;20527;-82
2022/08/20 10:16:20;;;;;;;1.30;1.30;;;38.20;35.40;;;;;;5120718;28;20530;-80
2022/08/20 10:18:49;;;;;;;1.90;1.37;;;38.30;35.20;;;;;;5119792;28;20541;-80
2022/08/20 10:21:17;;;;;;;1.90;1.80;;;38.40;35.10;;;;;;5120369;28;20466;-80
2022/08/20 10:23:45;;;;;;;1.63;1.53;;;38.50;34.90;;;;;;5119905;28;20535;-80
2022/08/20 10:26:13;;;;;;;1.30;1.30;;;38.50;34.80;;;;;;5119581;28;20444;-80
2022/08/20 10:28:42;;;;;;;1.40;1.30;;;38.50;34.70;;;;;;5118982;27;20424;-80
2022/08/20 10:31:10;;;;;;;1.43;1.20;;;38.60;34.70;;;;;;5119338;28;20911;-80
2022/08/20 10:33:39;;;;;;;1.50;1.40;;;38.80;34.70;;;;;;5119287;28;20429;-80
2022/08/20 10:36:09;;;;;;;1.30;1.20;;;38.90;34.40;;;;;;5119084;28;20481;-83
2022/08/20 10:38:37;;;;;;;1.37;1.27;;;38.90;34.40;;;;;;5119588;28;20966;-81
2022/08/20 10:41:06;;;;;;;1.40;1.13;;;39.00;34.40;;;;;;5119968;28;20475;-81
2022/08/20 10:43:34;;;;;;;1.30;1.20;;;39.20;34.30;;;;;;5119600;28;20444;-81
2022/08/20 10:46:02;;;;;;;1.10;1.10;;;39.30;34.10;;;;;;5119877;28;20451;-81
2022/08/20 10:48:30;;;;;;;1.33;1.33;;;39.50;33.90;;;;;;5119673;28;20482;-81
2022/08/20 10:50:58;;;;;;;1.10;1.10;;;39.70;33.80;;;;;;5119109;28;21017;-81
2022/08/20 10:53:27;;;;;;;1.20;1.20;;;39.80;33.90;;;;;;5119606;28;20452;-81
2022/08/20 10:55:56;;;;;;;1.20;1.10;;;40.10;33.60;;;;;;5120314;28;20471;-81
2022/08/20 10:58:24;;;;;;;1.07;1.07;;;40.10;33.40;;;;;;5120037;28;20471;-81
2022/08/20 11:00:52;;;;;;;1.13;1.10;;;40.40;33.40;;;;;;5118797;28;20531;-81
2022/08/20 11:03:20;;;;;;;1.00;1.00;;;40.60;33.20;;;;;;5119542;28;20436;-81
2022/08/20 11:05:48;;;;;;;1.20;1.20;;;40.70;33.20;;;;;;5118717;28;20550;-81
2022/08/20 11:08:16;;;;;;;1.00;1.00;;;40.90;33.10;;;;;;5118092;28;20482;-81
2022/08/20 11:11:02;;;;;;;1.00;1.00;;;41.10;32.90;;;;;;5118848;28;20465;-81
2022/08/20 11:13:30;;;;;;;1.30;1.30;;;41.40;32.70;;;;;;5118617;28;20471;-81
2022/08/20 11:15:58;;;;;;;1.20;1.10;;;41.80;32.20;;;;;;5119265;28;20506;-81
2022/08/20 11:18:26;;;;;;;1.70;1.00;;;42.20;31.90;;;;;;5119202;28;20481;-81
2022/08/20 11:20:54;;;;;;;1.43;1.30;;;42.50;31.50;;;;;;5118713;28;20435;-81
2022/08/20 11:23:22;;;;;;;1.30;1.20;;;42.80;31.20;;;;;;5118772;28;20471;-81
2022/08/20 11:25:50;;;;;;;0.97;0.97;;;42.70;31.00;;;;;;5118695;28;20539;-81
2022/08/20 11:28:19;;;;;;;1.00;1.00;;;43.10;30.20;;;;;;5118888;28;20470;-81
2022/08/20 11:30:59;;;;;;;1.13;1.00;;;43.00;30.30;;;;;;5118786;28;20439;-81
2022/08/20 11:33:27;;;;;;;1.13;1.10;;;43.00;30.80;;;;;;5118392;28;20526;-81
2022/08/20 11:35:55;;;;;;;0.97;0.97;;;43.60;29.90;;;;;;5119023;28;20526;-80
2022/08/20 11:38:23;;;;;;;0.93;0.93;;;43.60;29.60;;;;;;5118477;27;20439;-80
2022/08/20 11:40:50;;;;;;;0.80;0.80;;;43.90;29.60;;;;;;5118385;28;20545;-81
2022/08/20 11:43:20;;;;;;;1.10;1.10;;;44.70;28.70;;;;;;5118840;28;20499;-81
2022/08/20 11:45:50;;;;;;;0.90;0.90;;;44.40;28.90;;;;;;5118726;28;20550;-81
2022/08/20 11:48:18;;;;;;;1.13;0.70;;;45.20;28.90;;;;;;5118637;28;20534;-81
2022/08/20 11:50:46;;;;;;;0.70;0.70;;;46.70;27.30;;;;;;5118561;28;20478;-81
2022/08/20 11:53:14;;;;;;;0.80;0.80;;;47.80;26.50;;;;;;5119549;28;20561;-81
2022/08/20 11:55:42;;;;;;;0.90;0.90;;;48.20;25.80;;;;;;5119410;28;20487;-81
2022/08/20 11:58:10;;;;;;;0.80;0.80;;;47.30;26.50;;;;;;5117977;28;20203;-81
2022/08/20 12:00:39;;;;;;;0.80;0.80;;;46.20;27.20;;;;;;5118458;28;20436;-81
2022/08/20 12:03:07;;;;;;;2.10;0.70;;;46.90;27.10;;;;;;5122810;28;20446;-80
2022/08/20 12:05:37;;;;;;;0.90;0.90;;;46.60;27.00;;;;;;5122998;28;20470;-81
2022/08/20 12:08:05;;;;;;;0.80;0.80;;;46.20;27.20;;;;;;5124353;28;20540;-81
2022/08/20 12:10:33;;;;;;;0.80;0.80;;;46.70;27.30;;;;;;5121391;28;20472;-81
2022/08/20 12:13:01;;;;;;;0.80;0.80;;;47.60;25.70;;;;;;5122325;28;20475;-82
2022/08/20 12:15:31;;;;;;;0.90;0.80;;;47.60;25.60;;;;;;5121883;28;20463;-81
2022/08/20 12:18:02;;;;;;;0.80;0.80;;;47.60;26.10;;;;;;5118797;28;20443;-81
2022/08/20 12:20:30;;;;;;;0.80;0.60;;;46.90;26.50;;;;;;5119770;28;20494;-81
2022/08/20 12:22:58;;;;;;;0.70;0.70;;;47.90;26.30;;;;;;5120156;28;20436;-81
2022/08/20 12:25:26;;;;;;;0.65;0.65;;;49.40;25.10;;;;;;5119758;28;20282;-81
2022/08/20 12:27:55;;;;;;;1.15;0.70;;;50.40;24.00;;;;;;5121544;28;20218;-81
2022/08/20 12:30:23;;;;;;;0.68;0.60;;;51.30;23.40;;;;;;5121207;28;20274;-81
2022/08/20 12:32:52;;;;;;;0.70;0.70;;;52.00;22.90;;;;;;5121436;28;20229;-81
2022/08/20 12:35:21;;;;;;;0.60;0.60;;;52.50;22.30;;;;;;5121757;28;20252;-81
2022/08/20 12:37:49;;;;;;;0.60;0.60;;;53.30;22.10;;;;;;5122716;28;20209;-81
2022/08/20 12:40:19;;;;;;;0.80;0.80;;;53.80;21.80;;;;;;5122415;28;20227;-81
2022/08/20 12:42:59;;;;;;;0.70;0.70;;;53.80;21.50;;;;;;5121040;28;20191;-81
2022/08/20 12:45:27;;;;;;;0.60;0.60;;;53.40;21.40;;;;;;5122433;28;20222;-80
2022/08/20 12:48:00;;;;;;;2.95;0.90;;;51.60;22.30;;;;;;5119266;28;20195;-81
2022/08/20 12:50:29;;;;;;;0.70;0.70;;;49.90;23.40;;;;;;5118934;28;20199;-81
2022/08/20 12:52:59;;;;;;;0.75;0.75;;;48.50;24.30;;;;;;5119255;28;20274;-81
2022/08/20 12:55:27;;;;;;;0.90;0.90;;;47.50;25.30;;;;;;5118632;28;20283;-81
2022/08/20 12:57:56;;;;;;;1.10;1.00;;;46.70;25.60;;;;;;5118586;28;20478;-81
2022/08/20 13:00:25;;;;;;;1.17;0.90;;;46.00;26.20;;;;;;5118683;28;20507;-81
2022/08/20 13:02:54;;;;;;;0.80;0.70;;;45.30;26.70;;;;;;5117835;28;20531;-81
2022/08/20 13:05:22;;;;;;;0.85;0.85;;;45.80;27.80;;;;;;5118334;28;20997;-81
2022/08/20 13:07:52;;;;;;;0.80;0.80;;;47.40;25.70;;;;;;5120702;28;20526;-81
2022/08/20 13:10:21;;;;;;;0.70;0.70;;;47.90;24.70;;;;;;5119518;28;20219;-81
2022/08/20 13:12:49;;;;;;;1.27;1.17;;;46.80;25.20;;;;;;5117278;28;20546;-81
2022/08/20 13:15:18;;;;;;;0.80;0.80;;;45.90;25.90;;;;;;5118124;28;20483;-80